Česky Dansk Deutsch English Español Suomi Français Magyar Italiano Nederlands norsk Polski Português svenska Türkçe

 

Het Weer

Roth (Duitsland)

06:53, 5 december 2013 (GMT)

NWNNE
WE
SWSSE
Home            
Roth Nuernberg Ansbach / Katterbach Hohenfels Neuburg / Donau Illesheim Kuemmersruck Ingolstadt Grafenwoehr Niederstetten Augsburg Kitzingen Usa \ Af Bayreuth Giebelstadt Munchen Fuerstenfeldbruck Lechfeld Erding Oberpfaffenhofen Landsberg Hof Laupheim Stuttgart-Echterdingen

Om een weerknop op uw website of weblog te plaatsen, copieer onderstaande code en plak die in uw pagina. In het eerste vakje staat HTML-code, in het tweede vakje UBB-code.


Add to Google

Details

Wind speed:2 bf, 4 kn, 2.1 m/s, 4.6 miles/h, 7.4 km/h
Wind direction:WSW, 250°
Visibility: 1200 m, 1.2 km, 3937 ft, 0.7 miles
Clouds:Geschlossene Wolkendecke at 300 ft, 91 m
Het Weer:moderate mist
Temperature:2°C, 36°F
Gefühlte Temperatur:-1°C, 32°F
Dew-point:2°C, 36°F
Atmospheric pressure:1027 hPa, 770.3 mmHg, 30.33 inHg, 1.014 atm
Relative humidity:100.0 %
METAR:ETHR 050653Z 25004KT 1200 BR OVC003 02/02 Q1027 AMB

Snelkoppelingen

Actuele weersinformatie van de hele wereld. Voeg locaties toe met het plus (+) symbool. Deze snelkoppelingen kunnen worden toegevoegd aan Google.

Lid van de Technetium groep

website free tracking
StatCounter NetStat W3C Validator

24-11-2020 06:52:33
astro.technetium.be money.technetium.be phote.technetium.be tafeltennistafel.technetium.be www.ligfiets.net